Nordic Stockholm — 2DKI2 — position and weather

sailwx.info

Track history (hours):
 
Tides and Currents Weather Stations Pressure Air Temp Water Temp Dewpoint Dewpoint Depression Visibility Wind Speed Wind Dir Waves Ship Positions

Nordic Stockholm

Last reported at 2015-Jul-21 03:29 UTC. Time now 2015-Aug-04 01:28 UTC.
Position N 40°57' E 028°59'.
Warning: this ship's position is 13 days out of date.

Length 180 m; draft 10.9 m.

Type: Cargo ship. MMSI: 235079725.

Date/timePositionNaut miles runAvg speedWind from/ knotsBaromVisibWave heightAir tempDewpointWater temp
2015-Jul-21 03:29N 40°57' E 028°59'910.0
2015-Jul-21 02:33N 40°51' E 028°50'  
2015-Jul-17 23:30N 36°26' E 016°09'1210.5
2015-Jul-17 22:22N 36°26' E 015°54'911.4
2015-Jul-17 21:33N 36°26' E 015°42'1111.2
2015-Jul-17 20:33N 36°26' E 015°29'1111.2
2015-Jul-17 19:33N 36°27' E 015°15'1111.2
2015-Jul-17 18:34N 36°27' E 015°01'1111.2
2015-Jul-17 17:34N 36°28' E 014°47'1111.2
2015-Jul-17 16:33N 36°28' E 014°33'1111.0
2015-Jul-17 15:33N 36°31' E 014°20'1110.9
2015-Jul-17 14:34N 36°34' E 014°07'1111.2
2015-Jul-17 13:34N 36°37' E 013°53'1211.5
2015-Jul-17 12:33N 36°41' E 013°40'1211.6
2015-Jul-17 11:33N 36°45' E 013°26'1211.5
2015-Jul-17 10:33N 36°49' E 013°13'1211.5
2015-Jul-17 09:33N 36°52' E 012°59'1111.5
2015-Jul-17 08:33N 36°56' E 012°45'1211.6
2015-Jul-17 07:33N 36°59' E 012°31'1211.6
2015-Jul-17 06:33N 37°03' E 012°18'1111.2
2015-Jul-17 05:33N 37°07' E 012°04'1110.7
2015-Jul-17 04:33N 37°10' E 011°52'1110.8
2015-Jul-17 03:33N 37°13' E 011°39'1110.6
2015-Jul-17 02:31N 37°17' E 011°25'1010.7
2015-Jul-17 01:33N 37°20' E 011°13'2310.7
2015-Jul-16 23:23N 37°28' E 010°46'1011.5
2015-Jul-16 22:32N 37°31' E 010°34'1211.3
2015-Jul-16 21:29N 37°33' E 010°19'1011.3
2015-Jul-16 20:34N 37°34' E 010°06'1111.3
2015-Jul-16 19:33N 37°32' E 009°52'1111.1
2015-Jul-16 18:33N 37°29' E 009°39'1110.6
2015-Jul-16 17:33N 37°26' E 009°26'1010.4
2015-Jul-16 16:34N 37°23' E 009°13'4610.5
2015-Jul-16 12:08N 37°20' E 008°15'10410.9
2015-Jul-16 02:33N 37°15' E 006°04'1111.0
2015-Jul-16 01:32N 37°14' E 005°50'1110.8
2015-Jul-16 00:31N 37°13' E 005°36'3711.3
2015-Jul-15 21:17N 37°10' E 004°51'811.3
2015-Jul-15 20:33N 37°09' E 004°40'1511.2
2015-Jul-15 19:15N 37°07' E 004°22'811.3
2015-Jul-15 18:33N 37°08' E 004°12'1110.9
2015-Jul-15 17:33N 37°07' E 003°59'1110.8
2015-Jul-15 16:33N 37°05' E 003°45'3711.0
2015-Jul-15 13:12N 36°59' E 002°60'711.0
2015-Jul-15 12:33N 36°58' E 002°51'1110.9
2015-Jul-15 11:34N 36°56' E 002°38'1110.9
2015-Jul-15 10:34N 36°54' E 002°24'1110.8
2015-Jul-15 09:33N 36°52' E 002°11'1110.7
2015-Jul-15 08:33N 36°49' E 001°58'1110.5
2015-Jul-15 07:34N 36°48' E 001°45'1110.7
2015-Jul-15 06:33N 36°46' E 001°32'1110.7
2015-Jul-15 05:33N 36°44' E 001°18'1111.0
2015-Jul-15 04:33N 36°43' E 001°05'1211.7
2015-Jul-15 03:33N 36°41' E 000°51'1211.5
2015-Jul-15 02:33N 36°39' E 000°36'1211.3
2015-Jul-15 01:32N 36°36' E 000°22'1210.8
2015-Jul-15 00:26N 36°34' E 000°08'1310.8
2015-Jul-14 23:17N 36°32' W 000°08'810.8
2015-Jul-14 22:33N 36°31' W 000°17'1110.9
2015-Jul-14 21:34N 36°29' W 000°31'1010.4
2015-Jul-14 20:33N 36°27' W 000°43'1110.5
2015-Jul-14 19:34N 36°25' W 000°56'1110.5
2015-Jul-14 18:34N 36°23' W 001°09'1110.9
2015-Jul-14 17:33N 36°21' W 001°22'1110.9
2015-Jul-14 16:33N 36°19' W 001°36'1110.7
2015-Jul-14 15:34N 36°18' W 001°49'1010.4
2015-Jul-14 14:34N 36°16' W 002°02'1110.7
2015-Jul-14 13:34N 36°14' W 002°15'1010.4
2015-Jul-14 12:33N 36°12' W 002°27'1010.1
2015-Jul-14 11:34N 36°10' W 002°40'1010.2
2015-Jul-14 10:33N 36°09' W 002°52'11611.6
2015-Jul-14 00:33N 35°58' W 005°15'1212.2
2015-Jul-13 23:33N 35°57' W 005°30'43 9.8
2015-Jul-13 19:09N 35°57' W 006°23'2011.7
2015-Jul-13 17:28N 36°14' W 006°37'1111.8
2015-Jul-13 16:33N 36°24' W 006°41'1111.5
2015-Jul-13 15:33N 36°35' W 006°43'27 3.7
2015-Jul-13 08:21N 36°49' W 007°11'2511.8
2015-Jul-13 06:11N 36°30' W 007°32'711.8
2015-Jul-13 05:33N 36°23' W 007°35'1110.7
2015-Jul-13 04:33N 36°14' W 007°41'1110.8
2015-Jul-13 03:33N 36°07' W 007°51'1110.8
2015-Jul-13 02:33N 36°03' W 008°03'1110.9
2015-Jul-13 01:33N 36°00' W 008°17'1110.8
2015-Jul-13 00:33N 35°58' W 008°30'1110.6
2015-Jul-12 23:33N 35°55' W 008°43'1010.5
2015-Jul-12 22:33N 35°53' W 008°55'1210.6
2015-Jul-12 21:27N 35°51' W 009°09'2010.4
2015-Jul-12 19:32N 35°47' W 009°33'1010.6
2015-Jul-12 18:33N 35°44' W 009°46'1110.6
2015-Jul-12 17:33N 35°42' W 009°59'1410.5
2015-Jul-12 16:12N 35°39' W 010°16'  
Track history (hours):
 
Tides and Currents Weather Stations Pressure Air Temp Water Temp Dewpoint Dewpoint Depression Visibility Wind Speed Wind Dir Waves Ship Positions

Nordic Stockholm

Last reported at 2015-Jul-21 03:29 UTC. Time now 2015-Aug-04 01:28 UTC.
Position N 40°57' E 028°59'.
Warning: this ship's position is 13 days out of date.

Length 180 m; draft 10.9 m.

Type: Cargo ship. MMSI: 235079725.

Date/timePositionNaut miles runAvg speedWind from/ knotsBaromVisibWave heightAir tempDewpointWater temp
2015-Jul-21 03:29N 40°57' E 028°59'910.0
2015-Jul-21 02:33N 40°51' E 028°50'  
2015-Jul-17 23:30N 36°26' E 016°09'1210.5
2015-Jul-17 22:22N 36°26' E 015°54'911.4
2015-Jul-17 21:33N 36°26' E 015°42'1111.2
2015-Jul-17 20:33N 36°26' E 015°29'1111.2
2015-Jul-17 19:33N 36°27' E 015°15'1111.2
2015-Jul-17 18:34N 36°27' E 015°01'1111.2
2015-Jul-17 17:34N 36°28' E 014°47'1111.2
2015-Jul-17 16:33N 36°28' E 014°33'1111.0
2015-Jul-17 15:33N 36°31' E 014°20'1110.9
2015-Jul-17 14:34N 36°34' E 014°07'1111.2
2015-Jul-17 13:34N 36°37' E 013°53'1211.5
2015-Jul-17 12:33N 36°41' E 013°40'1211.6
2015-Jul-17 11:33N 36°45' E 013°26'1211.5
2015-Jul-17 10:33N 36°49' E 013°13'1211.5
2015-Jul-17 09:33N 36°52' E 012°59'1111.5
2015-Jul-17 08:33N 36°56' E 012°45'1211.6
2015-Jul-17 07:33N 36°59' E 012°31'1211.6
2015-Jul-17 06:33N 37°03' E 012°18'1111.2
2015-Jul-17 05:33N 37°07' E 012°04'1110.7
2015-Jul-17 04:33N 37°10' E 011°52'1110.8
2015-Jul-17 03:33N 37°13' E 011°39'1110.6
2015-Jul-17 02:31N 37°17' E 011°25'1010.7
2015-Jul-17 01:33N 37°20' E 011°13'2310.7
2015-Jul-16 23:23N 37°28' E 010°46'1011.5
2015-Jul-16 22:32N 37°31' E 010°34'1211.3
2015-Jul-16 21:29N 37°33' E 010°19'1011.3
2015-Jul-16 20:34N 37°34' E 010°06'1111.3
2015-Jul-16 19:33N 37°32' E 009°52'1111.1
2015-Jul-16 18:33N 37°29' E 009°39'1110.6
2015-Jul-16 17:33N 37°26' E 009°26'1010.4
2015-Jul-16 16:34N 37°23' E 009°13'4610.5
2015-Jul-16 12:08N 37°20' E 008°15'10410.9
2015-Jul-16 02:33N 37°15' E 006°04'1111.0
2015-Jul-16 01:32N 37°14' E 005°50'1110.8
2015-Jul-16 00:31N 37°13' E 005°36'3711.3
2015-Jul-15 21:17N 37°10' E 004°51'811.3
2015-Jul-15 20:33N 37°09' E 004°40'1511.2
2015-Jul-15 19:15N 37°07' E 004°22'811.3
2015-Jul-15 18:33N 37°08' E 004°12'1110.9
2015-Jul-15 17:33N 37°07' E 003°59'1110.8
2015-Jul-15 16:33N 37°05' E 003°45'3711.0
2015-Jul-15 13:12N 36°59' E 002°60'711.0
2015-Jul-15 12:33N 36°58' E 002°51'1110.9
2015-Jul-15 11:34N 36°56' E 002°38'1110.9
2015-Jul-15 10:34N 36°54' E 002°24'1110.8
2015-Jul-15 09:33N 36°52' E 002°11'1110.7
2015-Jul-15 08:33N 36°49' E 001°58'1110.5
2015-Jul-15 07:34N 36°48' E 001°45'1110.7
2015-Jul-15 06:33N 36°46' E 001°32'1110.7
2015-Jul-15 05:33N 36°44' E 001°18'1111.0
2015-Jul-15 04:33N 36°43' E 001°05'1211.7
2015-Jul-15 03:33N 36°41' E 000°51'1211.5
2015-Jul-15 02:33N 36°39' E 000°36'1211.3
2015-Jul-15 01:32N 36°36' E 000°22'1210.8
2015-Jul-15 00:26N 36°34' E 000°08'1310.8
2015-Jul-14 23:17N 36°32' W 000°08'810.8
2015-Jul-14 22:33N 36°31' W 000°17'1110.9
2015-Jul-14 21:34N 36°29' W 000°31'1010.4
2015-Jul-14 20:33N 36°27' W 000°43'1110.5
2015-Jul-14 19:34N 36°25' W 000°56'1110.5
2015-Jul-14 18:34N 36°23' W 001°09'1110.9
2015-Jul-14 17:33N 36°21' W 001°22'1110.9
2015-Jul-14 16:33N 36°19' W 001°36'1110.7
2015-Jul-14 15:34N 36°18' W 001°49'1010.4
2015-Jul-14 14:34N 36°16' W 002°02'1110.7
2015-Jul-14 13:34N 36°14' W 002°15'1010.4
2015-Jul-14 12:33N 36°12' W 002°27'1010.1
2015-Jul-14 11:34N 36°10' W 002°40'1010.2
2015-Jul-14 10:33N 36°09' W 002°52'11611.6
2015-Jul-14 00:33N 35°58' W 005°15'1212.2
2015-Jul-13 23:33N 35°57' W 005°30'43 9.8
2015-Jul-13 19:09N 35°57' W 006°23'2011.7
2015-Jul-13 17:28N 36°14' W 006°37'1111.8
2015-Jul-13 16:33N 36°24' W 006°41'1111.5
2015-Jul-13 15:33N 36°35' W 006°43'27 3.7
2015-Jul-13 08:21N 36°49' W 007°11'2511.8
2015-Jul-13 06:11N 36°30' W 007°32'711.8
2015-Jul-13 05:33N 36°23' W 007°35'1110.7
2015-Jul-13 04:33N 36°14' W 007°41'1110.8
2015-Jul-13 03:33N 36°07' W 007°51'1110.8
2015-Jul-13 02:33N 36°03' W 008°03'1110.9
2015-Jul-13 01:33N 36°00' W 008°17'1110.8
2015-Jul-13 00:33N 35°58' W 008°30'1110.6
2015-Jul-12 23:33N 35°55' W 008°43'1010.5
2015-Jul-12 22:33N 35°53' W 008°55'1210.6
2015-Jul-12 21:27N 35°51' W 009°09'2010.4
2015-Jul-12 19:32N 35°47' W 009°33'1010.6
2015-Jul-12 18:33N 35°44' W 009°46'1110.6
2015-Jul-12 17:33N 35°42' W 009°59'1410.5
2015-Jul-12 16:12N 35°39' W 010°16'  

Dump ship's entire track history